Time,TemperatureF,DewpointF,PressureIn,WindDirection,WindDirectionDegrees,WindSpeedMPH,WindSpeedGustMPH,Humidity,HourlyPrecipIn,Conditions,Clouds,dailyrainin,SoftwareType,DateUTC
2014-09-19 00:22:00,45.0,39.0,30.14,South,190,3.0,7.0,78,0.00,,,0.08,,2014-09-19 07:22:00,
2014-09-19 00:53:00,46.0,39.0,30.16,WSW,248,1.0,5.0,76,0.00,,,0.08,,2014-09-19 07:53:00,
2014-09-19 01:22:00,45.0,38.0,30.17,SSW,205,2.0,4.0,77,0.00,,,0.08,,2014-09-19 08:22:00,
2014-09-19 01:52:00,45.0,38.0,30.16,SSW,213,3.0,7.0,77,0.00,,,0.08,,2014-09-19 08:52:00,
2014-09-19 02:22:00,46.0,39.0,30.17,SW,220,2.0,4.0,76,0.00,,,0.08,,2014-09-19 09:22:00,
2014-09-19 02:54:00,46.0,38.0,30.17,WSW,239,3.0,7.0,73,0.00,,,0.08,,2014-09-19 09:54:00,
2014-09-19 03:23:00,45.0,38.0,30.19,SW,230,3.0,5.0,77,0.00,,,0.08,,2014-09-19 10:23:00,
2014-09-19 03:53:00,46.0,39.0,30.19,WSW,244,1.0,4.0,75,0.00,,,0.08,,2014-09-19 10:53:00,
2014-09-19 04:23:00,44.0,37.0,30.19,SW,223,2.0,4.0,76,0.00,,,0.08,,2014-09-19 11:23:00,
2014-09-19 04:52:00,45.0,-99.9,30.17,SSW,198,1.0,5.0,-999,0.00,,,0.08,,2014-09-19 11:52:00,
2014-09-19 05:12:00,46.0,35.0,30.18,West,267,3.0,8.0,66,0.00,,,0.08,,2014-09-19 12:12:00,
2014-09-19 05:22:00,46.0,35.0,30.19,North,0,0.0,1.0,65,0.00,,,0.08,,2014-09-19 12:22:00,
2014-09-19 05:52:00,44.0,36.0,30.20,SSE,162,1.0,3.0,72,0.00,,,0.08,,2014-09-19 12:52:00,
2014-09-19 06:22:00,46.0,33.0,30.20,SW,224,2.0,5.0,60,0.00,,,0.08,,2014-09-19 13:22:00,
2014-09-19 06:53:00,46.0,32.0,30.21,North,0,0.0,2.0,57,0.00,,,0.08,,2014-09-19 13:53:00,
2014-09-19 07:42:00,46.0,34.0,30.22,SE,124,2.0,3.0,63,0.00,,,0.08,,2014-09-19 14:42:00,
2014-09-19 08:11:00,49.0,36.0,30.23,North,0,0.0,1.0,60,0.00,,,0.08,,2014-09-19 15:11:00,
2014-09-19 10:23:00,49.0,-99.9,30.28,ESE,122,2.0,5.0,-999,0.00,,,0.08,,2014-09-19 17:23:00,
2014-09-19 10:53:00,49.0,42.0,30.29,ESE,108,1.0,2.0,78,0.00,,,0.08,,2014-09-19 17:53:00,
2014-09-19 11:22:00,50.0,42.0,30.30,ENE,66,1.0,3.0,75,0.00,,,0.08,,2014-09-19 18:22:00,
2014-09-19 11:52:00,52.0,43.0,30.31,East,97,2.0,6.0,72,0.00,,,0.08,,2014-09-19 18:52:00,
2014-09-19 12:22:00,51.0,44.0,30.31,NE,52,3.0,7.0,76,0.00,,,0.08,,2014-09-19 19:22:00,